Nearby METAR Reports

 

KFYM - Fayetteville, Tennessee, USA
Distance from station: NNW 3mi, 5km
Updated: Tue, 16-Jul-2019 4:55pm CDT
Partly cloudy
Partly cloudy
 Wind from S
Wind: S 12 mph , 19 km/h
Temperature: 88°F , 31°C
Heat Index: 95°F , 35°C
Dew Point: 72°F , 22°C
Humidity: 59%
Barometer: 30.04 inHg , 1017.3 hPa
Clouds: Partly cloudy
Visibility: 10 miles , 16 km
Cloud details: Few Clouds 3800 ft
Partly cloudy 4500 ft
2019/07/16 21:55 KFYM 162155Z AUTO 19010KT 170V230 10SM FEW038 SCT045 31/22 A3004 RMK A01
KMDQ - Huntsville/Madis, Alabama, USA
Distance from station: S 11mi, 18km
Updated: Tue, 16-Jul-2019 4:55pm CDT
Partly cloudy
Partly cloudy
 Wind from SSW
Wind: SSW 15 mph , 24 km/h
Temperature: 90°F , 32°C
Heat Index: 97°F , 36°C
Dew Point: 72°F , 22°C
Humidity: 55%
Barometer: 30.04 inHg , 1017.3 hPa
Clouds: Partly cloudy
Visibility: 10 miles , 16 km
Cloud details: Partly cloudy 4700 ft
Partly cloudy 5000 ft
Partly cloudy 6500 ft
2019/07/16 21:55 KMDQ 162155Z AUTO 20013KT 10SM SCT047 SCT050 SCT065 32/22 A3004 RMK A02 LTG DSNT SW T03180218
KHUA - Redstone Arsenal, Alabama, USA
Distance from station: SSW 25mi, 40km
Updated: Tue, 16-Jul-2019 4:58pm CDT
Mostly cloudy
Mostly cloudy
 Wind from SSW
Wind: SSW 10 mph , 17 km/h
Temperature: 88°F , 31°C
Heat Index: 95°F , 35°C
Dew Point: 72°F , 22°C
Humidity: 59%
Barometer: 30.02 inHg , 1016.6 hPa
Clouds: Mostly cloudy
Visibility: 10 miles , 16 km
Cloud details: Few Clouds 4200 ft
Mostly cloudy 5500 ft
2019/07/16 21:58 KHUA 162158Z AUTO 21009KT 10SM FEW042 BKN055 31/22 A3002 RMK AO2 SLP159 T03070222 $
 
KGZS - Pulaski, Tennessee, USA
Distance from station: WNW 29mi, 47km
Updated: Tue, 16-Jul-2019 4:55pm CDT
Mostly cloudy
Mostly cloudy
 Wind from calm
Wind: Calm
Temperature: 75°F , 24°C
Dew Point: 73°F , 23°C
Humidity: 94%
Barometer: 30.05 inHg , 1017.6 hPa
Clouds: Mostly cloudy
Visibility: 9 miles , 14 km
Cloud details: Few Clouds 3000 ft
Partly cloudy 7500 ft
Mostly cloudy 9000 ft
2019/07/16 21:55 KGZS 162155Z AUTO 00000KT 9SM FEW030 SCT075 BKN090 24/23 A3005 RMK A01 P0025
KBGF - Winchester, Tennessee, USA
Distance from station: ENE 30mi, 48km
Updated: Tue, 16-Jul-2019 4:55pm CDT
Partly cloudy
Partly cloudy
 Wind from SW
Wind: SW 9 mph , 15 km/h, Gust: 15 mph , 24 km/h
Temperature: 88°F , 31°C
Heat Index: 93°F , 34°C
Dew Point: 70°F , 21°C
Humidity: 55%
Barometer: 30.05 inHg , 1017.6 hPa
Clouds: Partly cloudy
Visibility: 10 miles , 16 km
Cloud details: Partly cloudy 6500 ft
2019/07/16 21:55 KBGF 162155Z AUTO 23008G13KT 10SM SCT065 31/21 A3005 RMK A01
KTHA - Tullahoma, Tennessee, USA
Distance from station: NE 30mi, 48km
Updated: Tue, 16-Jul-2019 4:55pm CDT
Clear
Clear
 Wind from S
Wind: S 10 mph , 17 km/h, Gust: 16 mph , 26 km/h
Temperature: 86°F , 30°C
Heat Index: 93°F , 34°C
Dew Point: 73°F , 23°C
Humidity: 66%
Barometer: 30.04 inHg , 1017.3 hPa
Clouds: Clear
Visibility: 10 miles , 16 km
2019/07/16 21:55 KTHA 162155Z AUTO 19009G14KT 10SM CLR 30/23 A3004 RMK A01
 
KDCU - Decatur, Alabama, USA
Distance from station: SW 34mi, 55km
Updated: Tue, 16-Jul-2019 4:53pm CDT
Few Clouds
Few Clouds
 Wind from SW
Wind: SW 13 mph , 20 km/h
Temperature: 88°F , 31°C
Heat Index: 96°F , 36°C
Dew Point: 73°F , 23°C
Humidity: 62%
Barometer: 30.04 inHg , 1017.3 hPa
Clouds: Few Clouds
Visibility: 10 miles , 16 km
Cloud details: Few Clouds 5500 ft
2019/07/16 21:53 KDCU 162153Z AUTO 22011KT 10SM FEW055 31/23 A3004 RMK AO2 SLP163 T03060228
KSYI - Shelbyville, Tennessee, USA
Distance from station: N 38mi, 61km
Updated: Tue, 16-Jul-2019 4:55pm CDT
Mostly cloudy
Mostly cloudy
 Wind from W
Wind: W 6 mph , 9 km/h
Temperature: 79°F , 26°C
Dew Point: 72°F , 22°C
Humidity: 79%
Barometer: 30.03 inHg , 1016.9 hPa
Clouds: Mostly cloudy
Visibility: 10 miles , 16 km
Cloud details: Few Clouds 4000 ft
Partly cloudy 4700 ft
Mostly cloudy 7500 ft
2019/07/16 21:55 KSYI 162155Z AUTO 27005KT 10SM FEW040 SCT047 BKN075 26/22 A3003 RMK A01
K4A6 - Scottsboro, Alabama, USA
Distance from station: SE 39mi, 63km
Updated: Tue, 16-Jul-2019 5:15pm CDT
Clear
Clear
 Wind from WSW
Wind: WSW 15 mph , 24 km/h, Gust: 22 mph , 35 km/h
Temperature: 91°F , 33°C
Heat Index: 95°F , 35°C
Dew Point: 68°F , 20°C
Humidity: 46%
Barometer: 30.05 inHg , 1017.6 hPa
Clouds: Clear
Visibility: 10 miles , 16 km
2019/07/16 22:15 K4A6 162215Z AUTO 24013G19KT 10SM CLR 33/20 A3005 RMK AO2